createdAt,value
2019-03-29T00:00:10.641Z,103059.88
2019-03-29T00:02:39.122Z,103065.30
2019-03-29T00:05:07.800Z,103067.15
2019-03-29T00:07:39.992Z,103062.29
2019-03-29T00:10:07.852Z,103069.06
2019-03-29T00:12:36.406Z,103064.52
2019-03-29T00:15:07.931Z,103057.36
2019-03-29T00:17:36.538Z,103059.16
2019-03-29T00:20:08.284Z,103063.23
2019-03-29T00:22:36.827Z,103055.66
2019-03-29T00:25:06.423Z,103057.13
2019-03-29T00:27:37.184Z,103055.66
2019-03-29T00:30:06.560Z,103058.78
2019-03-29T00:32:35.030Z,103047.72
2019-03-29T00:35:03.817Z,103052.16
2019-03-29T00:37:32.287Z,103048.66
2019-03-29T00:40:09.518Z,103042.86
2019-03-29T00:42:38.077Z,103044.22
2019-03-29T00:45:07.834Z,103048.73
2019-03-29T00:47:36.401Z,103041.09
2019-03-29T00:50:07.072Z,103049.22
2019-03-29T00:52:37.599Z,103039.36
2019-03-29T00:55:07.162Z,103038.94
2019-03-29T00:57:35.714Z,103035.74
2019-03-29T01:00:08.437Z,103034.39
2019-03-29T01:02:40.898Z,103030.89
2019-03-29T01:05:09.622Z,103025.95
2019-03-29T01:07:38.234Z,103021.88
2019-03-29T01:10:07.511Z,103020.12
2019-03-29T01:12:35.968Z,103022.94
2019-03-29T01:15:09.956Z,103021.96
2019-03-29T01:17:38.496Z,103025.54
2019-03-29T01:20:07.984Z,103013.91
2019-03-29T01:22:36.544Z,103008.97
2019-03-29T01:25:08.088Z,103009.46
2019-03-29T01:27:38.541Z,103009.46
2019-03-29T01:30:07.934Z,103009.95
2019-03-29T01:32:36.394Z,103004.98
2019-03-29T01:35:06.780Z,103001.89
2019-03-29T01:37:35.324Z,103003.40
2019-03-29T01:40:05.108Z,103004.75
2019-03-29T01:42:33.584Z,103004.19
2019-03-29T01:45:02.505Z,103005.55
2019-03-29T01:47:32.722Z,102999.19
2019-03-29T01:50:01.257Z,102994.25
2019-03-29T01:52:31.587Z,102995.68
2019-03-29T01:55:00.160Z,103000.69
2019-03-29T01:57:28.676Z,102999.75
2019-03-29T01:59:57.236Z,102997.42
2019-03-29T02:02:27.274Z,102997.04
2019-03-29T02:04:55.822Z,102997.91
2019-03-29T02:07:24.319Z,102992.97
2019-03-29T02:09:52.795Z,102996.47
2019-03-29T02:12:21.317Z,102989.77
2019-03-29T02:14:50.166Z,102992.56
2019-03-29T02:17:18.707Z,102997.04
2019-03-29T02:19:48.903Z,102989.85
2019-03-29T02:22:17.449Z,102990.41
2019-03-29T02:24:47.555Z,102986.65
2019-03-29T02:27:16.103Z,102985.30
2019-03-29T02:29:44.656Z,102986.20
2019-03-29T02:32:13.189Z,102984.84
2019-03-29T02:34:43.609Z,102990.27
2019-03-29T02:37:11.877Z,102979.49
2019-03-29T02:39:40.368Z,102979.42
2019-03-29T02:42:08.920Z,102978.44
2019-03-29T02:44:37.409Z,102973.09
2019-03-29T02:47:06.037Z,102967.22
2019-03-29T02:49:34.522Z,102973.02
2019-03-29T02:52:03.078Z,102974.38
2019-03-29T02:54:31.580Z,102974.45
2019-03-29T02:57:03.077Z,102974.16
2019-03-29T02:59:31.643Z,102976.30
2019-03-29T03:02:00.468Z,102976.78
2019-03-29T03:04:29.019Z,102971.28
2019-03-29T03:07:00.363Z,102972.23
2019-03-29T03:09:28.926Z,102969.94
2019-03-29T03:11:57.430Z,102973.09
2019-03-29T03:14:26.060Z,102968.66
2019-03-29T03:16:54.536Z,102975.36
2019-03-29T03:19:23.105Z,102971.44
2019-03-29T03:21:51.573Z,102971.44
2019-03-29T03:24:22.700Z,102971.44
2019-03-29T03:26:51.180Z,102974.94
2019-03-29T03:29:19.672Z,102972.23
2019-03-29T03:31:48.163Z,102972.64
2019-03-29T03:34:16.705Z,102966.33
2019-03-29T03:36:45.180Z,102973.59
2019-03-29T03:39:30.505Z,102978.22
2019-03-29T03:41:43.916Z,102976.00
2019-03-29T03:44:12.414Z,102985.41
2019-03-29T03:46:41.783Z,102980.92
2019-03-29T03:49:11.555Z,102974.23
2019-03-29T03:51:40.090Z,102978.78
2019-03-29T03:54:08.747Z,102980.62
2019-03-29T03:56:40.428Z,102981.49
2019-03-29T03:59:09.020Z,102974.72
2019-03-29T04:01:39.088Z,102975.77
2019-03-29T04:04:09.074Z,102974.80
2019-03-29T04:06:39.187Z,102973.44
2019-03-29T04:09:07.715Z,102971.63
2019-03-29T04:11:36.210Z,102968.43
2019-03-29T04:14:04.766Z,102974.72
2019-03-29T04:16:33.228Z,102973.92
2019-03-29T04:19:02.346Z,102971.70
2019-03-29T04:21:30.871Z,102966.28
2019-03-29T04:23:59.546Z,102965.87
2019-03-29T04:26:28.088Z,102964.85
2019-03-29T04:29:04.611Z,102963.58
2019-03-29T04:31:29.688Z,102964.93
2019-03-29T04:33:58.157Z,102962.30
2019-03-29T04:36:26.638Z,102968.09
2019-03-29T04:38:55.106Z,102957.74
2019-03-29T04:41:23.671Z,102954.66
2019-03-29T04:43:52.140Z,102969.56
2019-03-29T04:46:20.621Z,102970.02
2019-03-29T04:48:49.283Z,102968.09
2019-03-29T04:51:17.783Z,102965.49
2019-03-29T04:53:46.398Z,102964.59
2019-03-29T04:56:14.884Z,102964.14
2019-03-29T04:58:43.367Z,102961.99
2019-03-29T05:01:11.920Z,102969.14
2019-03-29T05:03:40.756Z,102967.30
2019-03-29T05:06:10.905Z,102965.95
2019-03-29T05:08:40.920Z,102962.94
2019-03-29T05:11:09.487Z,102965.57
2019-03-29T05:13:37.959Z,102974.64
2019-03-29T05:16:06.459Z,102974.27
2019-03-29T05:18:34.916Z,102970.98
2019-03-29T05:21:03.485Z,102968.77
2019-03-29T05:23:31.971Z,102970.50
2019-03-29T05:26:00.492Z,102966.44
2019-03-29T05:28:28.964Z,102971.37
2019-03-29T05:30:57.469Z,102966.84
2019-03-29T05:33:25.957Z,102962.86
2019-03-29T05:35:54.422Z,102967.30
2019-03-29T05:38:22.916Z,102965.16
2019-03-29T05:40:51.377Z,102964.22
2019-03-29T05:43:19.869Z,102962.37
2019-03-29T05:45:48.329Z,102965.87
2019-03-29T05:48:16.847Z,102962.67
2019-03-29T05:50:45.329Z,102964.44
2019-03-29T05:53:13.808Z,102965.00
2019-03-29T05:55:42.283Z,102961.73
2019-03-29T05:58:10.783Z,102962.30
2019-03-29T06:00:39.244Z,102959.43
2019-03-29T06:03:10.169Z,102958.53
2019-03-29T06:05:38.177Z,102955.75
2019-03-29T06:08:06.668Z,102949.95
2019-03-29T06:10:48.241Z,102947.61
2019-03-29T06:13:08.162Z,102953.45
2019-03-29T06:15:36.714Z,102952.17
2019-03-29T06:18:05.269Z,102951.30
2019-03-29T06:20:33.758Z,102949.05
2019-03-29T06:23:02.240Z,102943.77
2019-03-29T06:25:30.723Z,102945.05
2019-03-29T06:28:00.639Z,102951.60
2019-03-29T06:30:30.393Z,102942.04
2019-03-29T06:33:02.454Z,102945.92
2019-03-29T06:35:33.549Z,102940.50
2019-03-29T06:38:03.552Z,102942.56
2019-03-29T06:40:32.021Z,102941.51
2019-03-29T06:43:00.522Z,102939.48
2019-03-29T06:45:46.816Z,102936.01
2019-03-29T06:48:04.029Z,102933.62
2019-03-29T06:50:34.299Z,102934.49
2019-03-29T06:53:04.353Z,102933.28
2019-03-29T06:55:32.816Z,102936.42
2019-03-29T06:58:01.297Z,102926.91
2019-03-29T07:00:29.925Z,102930.69
2019-03-29T07:02:58.567Z,102932.95
2019-03-29T07:05:27.045Z,102926.94
2019-03-29T07:07:55.538Z,102930.43
2019-03-29T07:10:39.020Z,102924.28
2019-03-29T07:13:07.505Z,102920.74
2019-03-29T07:15:35.987Z,102927.52
2019-03-29T07:18:04.569Z,102929.09
2019-03-29T07:20:33.050Z,102925.84
2019-03-29T07:23:01.566Z,102919.66
2019-03-29T07:25:30.194Z,102927.09
2019-03-29T07:27:58.691Z,102927.55
2019-03-29T07:30:27.177Z,102931.31
2019-03-29T07:32:55.759Z,102926.89
2019-03-29T07:35:24.303Z,102932.36
2019-03-29T07:37:52.803Z,102931.71
2019-03-29T07:40:21.601Z,102935.47
2019-03-29T07:42:52.877Z,102940.77
2019-03-29T07:45:21.530Z,102939.85
2019-03-29T07:47:52.891Z,102933.61
2019-03-29T07:50:21.561Z,102933.02
2019-03-29T07:52:50.051Z,102931.56
2019-03-29T07:55:18.567Z,102931.25
2019-03-29T07:57:50.129Z,102932.86
2019-03-29T08:00:20.386Z,102929.98
2019-03-29T08:02:49.266Z,102930.53
2019-03-29T08:05:18.784Z,102934.62
2019-03-29T08:07:47.271Z,102938.33
2019-03-29T08:10:25.725Z,102925.13
2019-03-29T08:12:46.267Z,102924.44
2019-03-29T08:15:19.329Z,102923.59
2019-03-29T08:17:47.974Z,102923.16
2019-03-29T08:20:38.138Z,102919.92
2019-03-29T08:22:46.911Z,102926.04
2019-03-29T08:25:17.231Z,102928.97
2019-03-29T08:27:45.684Z,102935.56
2019-03-29T08:30:15.994Z,102928.44
2019-03-29T08:32:44.491Z,102928.09
2019-03-29T08:35:13.191Z,102928.89
2019-03-29T08:37:41.687Z,102927.38
2019-03-29T08:40:10.470Z,102926.23
2019-03-29T08:42:40.614Z,102918.37
2019-03-29T08:45:10.168Z,102925.16
2019-03-29T08:47:38.682Z,102926.26
2019-03-29T08:50:07.758Z,102929.56
2019-03-29T08:52:36.320Z,102918.41
2019-03-29T08:55:06.494Z,102908.48
2019-03-29T08:57:35.000Z,102914.44
2019-03-29T09:00:07.857Z,102908.66
2019-03-29T09:02:38.303Z,102898.66
2019-03-29T09:05:07.030Z,102893.53
2019-03-29T09:07:44.401Z,102904.20
2019-03-29T09:10:08.977Z,102886.96
2019-03-29T09:12:37.469Z,102887.66
2019-03-29T09:15:07.377Z,102884.05
2019-03-29T09:17:35.862Z,102889.09
2019-03-29T09:20:05.834Z,102891.02
2019-03-29T09:22:34.312Z,102890.50
2019-03-29T09:25:03.065Z,102887.70
2019-03-29T09:27:34.382Z,102880.52
2019-03-29T09:30:05.182Z,102873.77
2019-03-29T09:32:33.985Z,102874.14
2019-03-29T09:35:02.632Z,102872.55
2019-03-29T09:37:31.103Z,102872.98
2019-03-29T09:39:59.577Z,102878.55
2019-03-29T09:42:30.093Z,102870.27
2019-03-29T09:44:58.437Z,102865.08
2019-03-29T09:47:26.948Z,102863.06
2019-03-29T09:49:58.529Z,102865.81
2019-03-29T09:52:27.070Z,102860.00
2019-03-29T09:54:58.560Z,102858.99
2019-03-29T09:57:37.255Z,102853.94
2019-03-29T09:59:58.221Z,102848.91
2019-03-29T10:02:26.717Z,102853.58
2019-03-29T10:04:55.237Z,102846.20
2019-03-29T10:07:23.957Z,102842.12
2019-03-29T10:09:52.512Z,102842.69
2019-03-29T10:12:21.027Z,102843.68
2019-03-29T10:14:49.507Z,102841.75
2019-03-29T10:17:18.031Z,102841.82
2019-03-29T10:19:49.708Z,102845.73
2019-03-29T10:22:16.751Z,102831.94
2019-03-29T10:24:45.269Z,102835.48
2019-03-29T10:27:13.782Z,102823.27
2019-03-29T10:29:42.477Z,102816.41
2019-03-29T10:32:11.033Z,102830.22
2019-03-29T10:34:39.530Z,102813.94
2019-03-29T10:37:08.027Z,102808.20
2019-03-29T10:39:36.550Z,102806.05
2019-03-29T10:42:05.954Z,102801.88
2019-03-29T10:44:34.455Z,102803.98
2019-03-29T10:47:02.976Z,102801.76
2019-03-29T10:49:33.576Z,102797.61
2019-03-29T10:52:02.351Z,102789.43
2019-03-29T10:54:30.912Z,102789.08
2019-03-29T10:57:04.163Z,102787.23
2019-03-29T10:59:33.847Z,102784.84
2019-03-29T11:02:04.052Z,102785.95
2019-03-29T11:04:32.606Z,102780.77
2019-03-29T11:07:01.210Z,102781.20
2019-03-29T11:09:29.766Z,102777.52
2019-03-29T11:11:58.344Z,102771.39
2019-03-29T11:14:28.356Z,102777.00
2019-03-29T11:16:56.939Z,102769.59
2019-03-29T11:19:25.509Z,102767.73
2019-03-29T11:21:54.014Z,102686.67
2019-03-29T11:24:22.558Z,102768.86
2019-03-29T11:26:51.067Z,102760.06
2019-03-29T11:29:21.032Z,102755.16
2019-03-29T11:31:49.570Z,102754.25
2019-03-29T11:34:20.845Z,102755.49
2019-03-29T11:36:48.351Z,102746.16
2019-03-29T11:39:16.903Z,102744.10
2019-03-29T11:41:45.599Z,102743.79
2019-03-29T11:44:16.383Z,102742.29
2019-03-29T11:46:46.441Z,102741.36
2019-03-29T11:49:16.647Z,102733.34
2019-03-29T11:51:45.164Z,102740.77
2019-03-29T11:54:13.791Z,102730.17
2019-03-29T11:56:42.452Z,102723.97
2019-03-29T11:59:10.946Z,102725.75
2019-03-29T12:01:42.690Z,102725.37
2019-03-29T12:04:11.334Z,102720.02
2019-03-29T12:06:39.850Z,102724.61
2019-03-29T12:09:08.460Z,102718.70
2019-03-29T12:11:37.042Z,102715.23
2019-03-29T12:14:05.663Z,102720.80
2019-03-29T12:16:34.373Z,102711.70
2019-03-29T12:19:02.884Z,102702.03
2019-03-29T12:21:33.865Z,102708.28
2019-03-29T12:24:05.382Z,102714.32
2019-03-29T12:26:33.860Z,102708.19
2019-03-29T12:29:02.503Z,102702.61
2019-03-29T12:31:31.107Z,102698.79
2019-03-29T12:33:59.611Z,102693.55
2019-03-29T12:36:28.081Z,102687.16
2019-03-29T12:38:56.656Z,102688.34
2019-03-29T12:41:25.135Z,102681.64
2019-03-29T12:43:55.679Z,102672.33
2019-03-29T12:46:23.852Z,102669.84
2019-03-29T12:48:55.399Z,102663.56
2019-03-29T12:51:24.178Z,102653.86
2019-03-29T12:53:54.986Z,102657.08
2019-03-29T12:56:23.441Z,102662.40
2019-03-29T12:58:52.034Z,102650.09
2019-03-29T13:01:20.586Z,102646.30
2019-03-29T13:03:51.608Z,102639.36
2019-03-29T13:06:20.174Z,102638.22
2019-03-29T13:08:48.753Z,102636.64
2019-03-29T13:11:17.374Z,102630.83
2019-03-29T13:13:45.885Z,102627.77
2019-03-29T13:16:14.380Z,102625.75
2019-03-29T13:18:42.925Z,102618.84
2019-03-29T13:21:13.149Z,102615.56
2019-03-29T13:23:41.621Z,102623.94
2019-03-29T13:26:10.147Z,102617.69
2019-03-29T13:28:38.639Z,102610.41
2019-03-29T13:31:07.629Z,102613.42
2019-03-29T13:33:40.505Z,102608.50
2019-03-29T13:36:09.076Z,102599.30
2019-03-29T13:38:37.581Z,102598.00
2019-03-29T13:41:07.214Z,102595.36
2019-03-29T13:43:36.431Z,102596.06
2019-03-29T13:46:05.082Z,102589.84
2019-03-29T13:48:33.576Z,102587.17
2019-03-29T13:51:02.117Z,102578.20
2019-03-29T13:53:30.596Z,102577.05
2019-03-29T13:55:59.105Z,102571.37
2019-03-29T13:58:27.582Z,102577.50
2019-03-29T14:00:56.087Z,102568.50
2019-03-29T14:03:24.639Z,102572.92
2019-03-29T14:05:53.168Z,102564.44
2019-03-29T14:08:21.688Z,102564.62
2019-03-29T14:10:50.171Z,102555.29
2019-03-29T14:13:19.799Z,102561.06
2019-03-29T14:15:48.507Z,102551.55
2019-03-29T14:18:17.017Z,102546.81
2019-03-29T14:20:45.561Z,102540.42
2019-03-29T14:23:15.675Z,102537.80
2019-03-29T14:25:46.818Z,102529.26
2019-03-29T14:28:15.321Z,102521.33
2019-03-29T14:30:45.341Z,102522.34
2019-03-29T14:33:13.917Z,102524.78
2019-03-29T14:35:42.386Z,102519.61
2019-03-29T14:38:10.897Z,102521.63
2019-03-29T14:40:39.365Z,102523.67
2019-03-29T14:43:07.867Z,102512.91
2019-03-29T14:45:36.434Z,102510.25
2019-03-29T14:48:04.995Z,102509.36
2019-03-29T14:50:35.801Z,102507.98
2019-03-29T14:53:04.353Z,102512.56
2019-03-29T14:55:32.827Z,102503.72
2019-03-29T14:58:01.413Z,102498.89
2019-03-29T15:01:01.092Z,102507.92
2019-03-29T15:03:29.582Z,102499.19
2019-03-29T15:06:01.493Z,102500.19
2019-03-29T15:08:28.517Z,102488.70
2019-03-29T15:10:57.002Z,102486.80
2019-03-29T15:13:29.708Z,102484.62
2019-03-29T15:16:00.950Z,102480.94
2019-03-29T15:18:29.428Z,102473.87
2019-03-29T15:20:57.929Z,102464.41
2019-03-29T15:23:26.411Z,102470.90
2019-03-29T15:25:55.046Z,102464.99
2019-03-29T15:28:24.836Z,102458.22
2019-03-29T15:30:53.315Z,102460.73
2019-03-29T15:33:21.786Z,102454.50
2019-03-29T15:35:50.285Z,102457.17
2019-03-29T15:38:21.814Z,102449.41
2019-03-29T15:40:50.380Z,102451.48
2019-03-29T15:43:21.295Z,102448.84
2019-03-29T15:45:49.785Z,102446.71
2019-03-29T15:48:18.327Z,102447.15
2019-03-29T15:50:48.346Z,102443.69
2019-03-29T15:53:32.907Z,102446.91
2019-03-29T15:55:58.331Z,102436.22
2019-03-29T15:58:26.812Z,102443.84
2019-03-29T16:00:55.372Z,102426.66
2019-03-29T16:03:23.851Z,102433.98
2019-03-29T16:05:52.377Z,102430.81
2019-03-29T16:08:20.850Z,102433.31
2019-03-29T16:10:49.354Z,102431.37
2019-03-29T16:13:17.915Z,102427.86
2019-03-29T16:15:48.919Z,102431.34
2019-03-29T16:18:17.507Z,102429.48
2019-03-29T16:20:45.999Z,102432.91
2019-03-29T16:23:14.494Z,102426.28
2019-03-29T16:25:42.977Z,102419.61
2019-03-29T16:28:11.624Z,102418.45
2019-03-29T16:30:40.193Z,102422.10
2019-03-29T16:33:08.821Z,102411.69
2019-03-29T16:35:37.304Z,102410.39
2019-03-29T16:38:05.927Z,102404.13
2019-03-29T16:40:34.433Z,102406.73
2019-03-29T16:43:02.935Z,102402.32
2019-03-29T16:45:31.481Z,102395.91
2019-03-29T16:48:00.019Z,102398.72
2019-03-29T16:50:28.494Z,102388.61
2019-03-29T16:52:58.007Z,102382.55
2019-03-29T16:55:26.523Z,102383.13
2019-03-29T16:57:55.040Z,102383.33
2019-03-29T17:00:29.513Z,102382.19
2019-03-29T17:02:58.032Z,102378.48
2019-03-29T17:05:26.599Z,102379.54
2019-03-29T17:07:55.173Z,102380.97
2019-03-29T17:10:23.805Z,102381.53
2019-03-29T17:12:52.489Z,102381.08
2019-03-29T17:15:22.597Z,102377.16
2019-03-29T17:17:54.220Z,102378.23
2019-03-29T17:20:22.937Z,102373.93
2019-03-29T17:22:51.490Z,102370.69
2019-03-29T17:25:20.257Z,102366.54
2019-03-29T17:27:52.170Z,102377.23
2019-03-29T17:30:27.532Z,102365.98
2019-03-29T17:32:56.022Z,102365.98
2019-03-29T17:35:24.646Z,102370.67
2019-03-29T17:37:53.133Z,102370.67
2019-03-29T17:40:21.851Z,102368.61
2019-03-29T17:42:50.938Z,102368.27
2019-03-29T17:45:19.629Z,102369.92
2019-03-29T17:47:48.126Z,102370.20
2019-03-29T17:50:16.784Z,102363.66
2019-03-29T17:52:45.340Z,102368.19
2019-03-29T17:55:14.091Z,102360.65
2019-03-29T17:57:48.642Z,102365.16
2019-03-29T18:00:24.659Z,102367.64
2019-03-29T18:02:56.357Z,102372.39
2019-03-29T18:05:24.916Z,102367.58
2019-03-29T18:07:53.428Z,102374.06
2019-03-29T18:10:22.098Z,102366.88
2019-03-29T18:12:52.306Z,102374.22
2019-03-29T18:15:20.963Z,102373.37
2019-03-29T18:17:52.637Z,102372.64
2019-03-29T18:20:21.295Z,102372.77
2019-03-29T18:22:51.325Z,102371.68
2019-03-29T18:25:22.775Z,102369.08
2019-03-29T18:27:51.262Z,102368.19
2019-03-29T18:30:25.233Z,102363.23
2019-03-29T18:32:59.706Z,102363.59
2019-03-29T18:35:24.394Z,102363.59
2019-03-29T18:37:53.021Z,102362.10
2019-03-29T18:40:26.928Z,102368.28
2019-03-29T18:42:56.248Z,102367.06
2019-03-29T18:45:24.862Z,102365.80
2019-03-29T18:47:53.429Z,102364.43
2019-03-29T18:50:22.097Z,102365.87
2019-03-29T18:52:50.613Z,102368.95
2019-03-29T18:55:19.210Z,102362.36
2019-03-29T18:57:47.713Z,102366.56
2019-03-29T19:00:19.386Z,102360.70
2019-03-29T19:02:47.970Z,102360.80
2019-03-29T19:05:26.865Z,102359.55
2019-03-29T19:07:55.395Z,102359.64
2019-03-29T19:10:24.020Z,102359.72
2019-03-29T19:12:52.667Z,102356.58
2019-03-29T19:15:21.415Z,102364.06
2019-03-29T19:17:49.978Z,102352.54
2019-03-29T19:20:27.513Z,102357.34
2019-03-29T19:22:48.858Z,102354.08
2019-03-29T19:25:17.568Z,102352.58
2019-03-29T19:27:46.155Z,102354.41
2019-03-29T19:30:15.252Z,102354.97
2019-03-29T19:32:43.906Z,102354.33
2019-03-29T19:35:12.688Z,102348.84
2019-03-29T19:37:41.228Z,102354.34
2019-03-29T19:40:10.716Z,102343.82
2019-03-29T19:42:39.282Z,102349.72
2019-03-29T19:45:10.189Z,102348.41
2019-03-29T19:47:38.697Z,102345.65
2019-03-29T19:50:08.070Z,102343.28
2019-03-29T19:52:36.569Z,102344.95
2019-03-29T19:55:06.391Z,102342.83
2019-03-29T19:57:34.848Z,102341.82
2019-03-29T20:00:06.275Z,102346.86
2019-03-29T20:02:35.190Z,102350.28
2019-03-29T20:05:04.201Z,102351.58
2019-03-29T20:07:32.697Z,102347.59
2019-03-29T20:10:01.585Z,102348.05
2019-03-29T20:12:30.144Z,102345.41
2019-03-29T20:14:58.639Z,102347.73
2019-03-29T20:17:27.951Z,102342.25
2019-03-29T20:19:56.644Z,102342.58
2019-03-29T20:22:25.143Z,102346.20
2019-03-29T20:24:53.643Z,102352.56
2019-03-29T20:27:22.223Z,102351.04
2019-03-29T20:29:50.772Z,102349.68
2019-03-29T20:32:20.000Z,102347.92
2019-03-29T20:34:48.486Z,102345.44
2019-03-29T20:37:17.074Z,102339.32
2019-03-29T20:39:45.594Z,102347.40
2019-03-29T20:42:14.125Z,102345.28
2019-03-29T20:44:42.769Z,102343.92
2019-03-29T20:47:11.419Z,102336.41
2019-03-29T20:49:39.893Z,102337.79
2019-03-29T20:52:08.503Z,102336.17
2019-03-29T20:54:37.017Z,102340.33
2019-03-29T20:57:05.520Z,102331.76
2019-03-29T20:59:34.021Z,102341.54
2019-03-29T21:02:04.115Z,102339.34
2019-03-29T21:04:32.842Z,102343.41
2019-03-29T21:07:01.396Z,102336.95
2019-03-29T21:09:30.002Z,102339.49
2019-03-29T21:11:58.545Z,102335.44
2019-03-29T21:14:27.107Z,102328.17
2019-03-29T21:16:58.533Z,102324.42
2019-03-29T21:19:30.273Z,102326.37
2019-03-29T21:21:58.874Z,102329.67
2019-03-29T21:24:27.376Z,102322.41
2019-03-29T21:26:55.960Z,102324.26
2019-03-29T21:29:24.544Z,102327.56
2019-03-29T21:31:53.051Z,102324.67
2019-03-29T21:34:21.700Z,102315.47
2019-03-29T21:36:52.960Z,102318.22
2019-03-29T21:39:21.469Z,102310.95
2019-03-29T21:41:50.022Z,102312.53
2019-03-29T21:44:18.596Z,102310.41
2019-03-29T21:46:47.287Z,102308.97
2019-03-29T21:49:15.782Z,102305.17
2019-03-29T21:51:44.249Z,102295.42
2019-03-29T21:54:12.926Z,102293.97
2019-03-29T21:56:41.414Z,102298.04
2019-03-29T21:59:09.949Z,102293.88
2019-03-29T22:01:38.466Z,102296.49
2019-03-29T22:04:07.028Z,102300.64
2019-03-29T22:06:35.601Z,102303.08
2019-03-29T22:09:06.512Z,102302.98
2019-03-29T22:11:35.092Z,102298.34
2019-03-29T22:14:12.625Z,102300.77
2019-03-29T22:16:41.752Z,102303.38
2019-03-29T22:19:10.308Z,102303.27
2019-03-29T22:21:40.621Z,102296.41
2019-03-29T22:24:09.098Z,102292.03
2019-03-29T22:26:37.693Z,102292.73
2019-03-29T22:29:06.260Z,102291.06
2019-03-29T22:31:35.118Z,102291.65
2019-03-29T22:34:09.141Z,102288.16
2019-03-29T22:36:37.775Z,102283.97
2019-03-29T22:39:07.994Z,102274.70
2019-03-29T22:41:39.584Z,102272.95
2019-03-29T22:44:07.991Z,102262.02
2019-03-29T22:46:36.518Z,102265.89
2019-03-29T22:49:05.088Z,102254.88
2019-03-29T22:51:33.683Z,102256.89
2019-03-29T22:54:05.149Z,102256.70
2019-03-29T22:56:35.369Z,102256.59
2019-03-29T22:59:03.949Z,102254.74
2019-03-29T23:01:35.476Z,102255.50
2019-03-29T23:04:04.049Z,102250.29
2019-03-29T23:06:32.567Z,102253.17
2019-03-29T23:09:00.996Z,102247.19
2019-03-29T23:11:29.502Z,102250.47
2019-03-29T23:13:58.090Z,102249.38
2019-03-29T23:16:26.592Z,102244.63
2019-03-29T23:19:05.897Z,102242.99
2019-03-29T23:21:28.022Z,102251.68
2019-03-29T23:23:56.632Z,102248.66
2019-03-29T23:26:25.125Z,102250.30
2019-03-29T23:28:53.640Z,102246.41
2019-03-29T23:31:22.099Z,102244.48
2019-03-29T23:33:54.145Z,102247.36
2019-03-29T23:36:22.620Z,102246.95
2019-03-29T23:38:51.106Z,102243.67
2019-03-29T23:41:21.101Z,102240.77
2019-03-29T23:43:51.142Z,102240.27
2019-03-29T23:46:19.612Z,102234.58
2019-03-29T23:48:48.083Z,102242.85
2019-03-29T23:51:16.662Z,102231.27
2019-03-29T23:53:45.149Z,102231.39
2019-03-29T23:56:13.661Z,102229.17
2019-03-29T23:58:42.138Z,102223.28
